sensor_id;sensor_type;location;lat;lon;timestamp;P1;durP1;ratioP1;P2;durP2;ratioP2
25327;SDS011;13279;51.300;12.394;2023-05-29T00:01:36;7.10;;;5.07;;
25327;SDS011;13279;51.300;12.394;2023-05-29T00:04:05;14.13;;;5.40;;
25327;SDS011;13279;51.300;12.394;2023-05-29T00:06:32;11.07;;;6.03;;
25327;SDS011;13279;51.300;12.394;2023-05-29T00:09:01;12.07;;;5.67;;
25327;SDS011;13279;51.300;12.394;2023-05-29T00:11:29;11.00;;;5.73;;
25327;SDS011;13279;51.300;12.394;2023-05-29T00:13:58;14.70;;;6.13;;
25327;SDS011;13279;51.300;12.394;2023-05-29T00:16:25;11.47;;;7.20;;
25327;SDS011;13279;51.300;12.394;2023-05-29T00:18:54;12.33;;;7.73;;
25327;SDS011;13279;51.300;12.394;2023-05-29T00:21:23;15.63;;;7.70;;
25327;SDS011;13279;51.300;12.394;2023-05-29T00:23:51;16.57;;;6.93;;
25327;SDS011;13279;51.300;12.394;2023-05-29T00:26:18;17.20;;;7.50;;
25327;SDS011;13279;51.300;12.394;2023-05-29T00:28:53;12.53;;;6.77;;
25327;SDS011;13279;51.300;12.394;2023-05-29T00:31:22;12.87;;;6.47;;
25327;SDS011;13279;51.300;12.394;2023-05-29T00:33:50;13.40;;;7.53;;
25327;SDS011;13279;51.300;12.394;2023-05-29T00:36:18;37.57;;;18.00;;
25327;SDS011;13279;51.300;12.394;2023-05-29T00:38:47;26.23;;;11.70;;
25327;SDS011;13279;51.300;12.394;2023-05-29T00:41:15;20.73;;;9.60;;
25327;SDS011;13279;51.300;12.394;2023-05-29T00:43:43;15.70;;;7.47;;
25327;SDS011;13279;51.300;12.394;2023-05-29T00:46:12;17.93;;;8.30;;
25327;SDS011;13279;51.300;12.394;2023-05-29T00:48:44;12.70;;;7.40;;
25327;SDS011;13279;51.300;12.394;2023-05-29T00:51:12;15.40;;;8.87;;
25327;SDS011;13279;51.300;12.394;2023-05-29T00:53:42;13.77;;;7.27;;
25327;SDS011;13279;51.300;12.394;2023-05-29T00:56:11;12.93;;;7.03;;
25327;SDS011;13279;51.300;12.394;2023-05-29T00:58:41;11.13;;;6.33;;
25327;SDS011;13279;51.300;12.394;2023-05-29T01:01:09;12.20;;;5.60;;
25327;SDS011;13279;51.300;12.394;2023-05-29T01:03:37;10.43;;;5.60;;
25327;SDS011;13279;51.300;12.394;2023-05-29T01:06:08;9.50;;;4.40;;
25327;SDS011;13279;51.300;12.394;2023-05-29T01:08:36;7.50;;;4.93;;
25327;SDS011;13279;51.300;12.394;2023-05-29T01:11:06;10.17;;;4.90;;
25327;SDS011;13279;51.300;12.394;2023-05-29T01:13:48;8.10;;;4.80;;
25327;SDS011;13279;51.300;12.394;2023-05-29T01:16:18;8.93;;;5.13;;
25327;SDS011;13279;51.300;12.394;2023-05-29T01:18:54;9.90;;;4.90;;
25327;SDS011;13279;51.300;12.394;2023-05-29T01:21:33;8.57;;;4.93;;
25327;SDS011;13279;51.300;12.394;2023-05-29T01:24:18;7.17;;;4.57;;
25327;SDS011;13279;51.300;12.394;2023-05-29T01:26:55;8.37;;;4.63;;
25327;SDS011;13279;51.300;12.394;2023-05-29T01:29:28;7.47;;;4.77;;
25327;SDS011;13279;51.300;12.394;2023-05-29T01:31:56;9.07;;;4.00;;
25327;SDS011;13279;51.300;12.394;2023-05-29T01:34:28;7.70;;;4.40;;
25327;SDS011;13279;51.300;12.394;2023-05-29T01:36:56;12.17;;;3.70;;
25327;SDS011;13279;51.300;12.394;2023-05-29T01:39:25;7.60;;;4.47;;
25327;SDS011;13279;51.300;12.394;2023-05-29T01:41:53;5.63;;;3.70;;
25327;SDS011;13279;51.300;12.394;2023-05-29T01:44:23;8.93;;;3.83;;
25327;SDS011;13279;51.300;12.394;2023-05-29T01:46:51;9.60;;;3.60;;
25327;SDS011;13279;51.300;12.394;2023-05-29T01:49:20;5.20;;;4.03;;
25327;SDS011;13279;51.300;12.394;2023-05-29T01:51:51;5.67;;;3.70;;
25327;SDS011;13279;51.300;12.394;2023-05-29T01:54:21;4.30;;;3.70;;
25327;SDS011;13279;51.300;12.394;2023-05-29T01:57:08;10.23;;;3.77;;
25327;SDS011;13279;51.300;12.394;2023-05-29T01:59:52;5.90;;;3.70;;
25327;SDS011;13279;51.300;12.394;2023-05-29T02:02:21;5.87;;;3.83;;
25327;SDS011;13279;51.300;12.394;2023-05-29T02:04:49;5.03;;;3.67;;
25327;SDS011;13279;51.300;12.394;2023-05-29T02:07:18;13.07;;;3.90;;
25327;SDS011;13279;51.300;12.394;2023-05-29T02:09:46;5.67;;;3.77;;
25327;SDS011;13279;51.300;12.394;2023-05-29T02:12:15;5.57;;;3.80;;
25327;SDS011;13279;51.300;12.394;2023-05-29T02:14:43;6.40;;;3.80;;
25327;SDS011;13279;51.300;12.394;2023-05-29T02:17:10;6.20;;;3.27;;
25327;SDS011;13279;51.300;12.394;2023-05-29T02:19:40;9.87;;;3.87;;
25327;SDS011;13279;51.300;12.394;2023-05-29T02:22:08;7.93;;;3.60;;
25327;SDS011;13279;51.300;12.394;2023-05-29T02:24:35;7.03;;;3.80;;
25327;SDS011;13279;51.300;12.394;2023-05-29T02:27:03;8.13;;;3.73;;
25327;SDS011;13279;51.300;12.394;2023-05-29T02:29:32;12.60;;;4.03;;
25327;SDS011;13279;51.300;12.394;2023-05-29T02:32:00;7.37;;;4.10;;
25327;SDS011;13279;51.300;12.394;2023-05-29T02:34:27;6.30;;;3.63;;
25327;SDS011;13279;51.300;12.394;2023-05-29T02:36:56;7.50;;;3.97;;
25327;SDS011;13279;51.300;12.394;2023-05-29T02:39:23;7.00;;;3.47;;
25327;SDS011;13279;51.300;12.394;2023-05-29T02:41:51;5.07;;;4.03;;
25327;SDS011;13279;51.300;12.394;2023-05-29T02:44:19;8.57;;;3.47;;
25327;SDS011;13279;51.300;12.394;2023-05-29T02:46:48;8.10;;;3.90;;
25327;SDS011;13279;51.300;12.394;2023-05-29T02:49:15;5.53;;;3.70;;
25327;SDS011;13279;51.300;12.394;2023-05-29T02:51:43;8.97;;;3.87;;
25327;SDS011;13279;51.300;12.394;2023-05-29T02:54:11;5.67;;;3.33;;
25327;SDS011;13279;51.300;12.394;2023-05-29T02:56:40;4.60;;;3.97;;
25327;SDS011;13279;51.300;12.394;2023-05-29T02:59:07;6.20;;;3.77;;
25327;SDS011;13279;51.300;12.394;2023-05-29T03:01:35;5.57;;;3.47;;
25327;SDS011;13279;51.300;12.394;2023-05-29T03:04:04;5.20;;;3.50;;
25327;SDS011;13279;51.300;12.394;2023-05-29T03:06:32;4.83;;;3.83;;
25327;SDS011;13279;51.300;12.394;2023-05-29T03:08:59;6.37;;;3.87;;
25327;SDS011;13279;51.300;12.394;2023-05-29T03:11:29;5.80;;;3.53;;
25327;SDS011;13279;51.300;12.394;2023-05-29T03:13:58;6.97;;;3.97;;
25327;SDS011;13279;51.300;12.394;2023-05-29T03:16:26;6.03;;;3.77;;
25327;SDS011;13279;51.300;12.394;2023-05-29T03:18:55;11.97;;;3.90;;
25327;SDS011;13279;51.300;12.394;2023-05-29T03:21:24;6.33;;;3.87;;
25327;SDS011;13279;51.300;12.394;2023-05-29T03:23:52;5.53;;;3.60;;
25327;SDS011;13279;51.300;12.394;2023-05-29T03:26:19;7.53;;;3.80;;
25327;SDS011;13279;51.300;12.394;2023-05-29T03:28:48;8.50;;;3.47;;
25327;SDS011;13279;51.300;12.394;2023-05-29T03:31:15;4.90;;;3.07;;
25327;SDS011;13279;51.300;12.394;2023-05-29T03:33:43;7.77;;;3.53;;
25327;SDS011;13279;51.300;12.394;2023-05-29T03:36:20;6.70;;;3.17;;
25327;SDS011;13279;51.300;12.394;2023-05-29T03:38:50;6.27;;;3.50;;
25327;SDS011;13279;51.300;12.394;2023-05-29T03:41:19;8.83;;;4.00;;
25327;SDS011;13279;51.300;12.394;2023-05-29T03:43:46;7.33;;;3.47;;
25327;SDS011;13279;51.300;12.394;2023-05-29T03:46:15;6.63;;;3.50;;
25327;SDS011;13279;51.300;12.394;2023-05-29T03:48:43;8.87;;;4.90;;
25327;SDS011;13279;51.300;12.394;2023-05-29T03:51:10;10.30;;;3.87;;
25327;SDS011;13279;51.300;12.394;2023-05-29T03:53:39;7.00;;;3.53;;
25327;SDS011;13279;51.300;12.394;2023-05-29T03:56:09;5.60;;;3.93;;
25327;SDS011;13279;51.300;12.394;2023-05-29T03:58:37;7.33;;;4.23;;
25327;SDS011;13279;51.300;12.394;2023-05-29T04:01:04;7.10;;;3.67;;
25327;SDS011;13279;51.300;12.394;2023-05-29T04:03:32;4.80;;;3.80;;
25327;SDS011;13279;51.300;12.394;2023-05-29T04:05:59;6.23;;;3.80;;
25327;SDS011;13279;51.300;12.394;2023-05-29T04:08:27;9.03;;;4.00;;
25327;SDS011;13279;51.300;12.394;2023-05-29T04:10:55;7.23;;;3.90;;
25327;SDS011;13279;51.300;12.394;2023-05-29T04:13:24;7.73;;;4.53;;
25327;SDS011;13279;51.300;12.394;2023-05-29T04:15:51;7.30;;;3.40;;
25327;SDS011;13279;51.300;12.394;2023-05-29T04:18:19;7.93;;;4.20;;
25327;SDS011;13279;51.300;12.394;2023-05-29T04:20:47;5.37;;;4.03;;
25327;SDS011;13279;51.300;12.394;2023-05-29T04:23:16;8.63;;;4.63;;
25327;SDS011;13279;51.300;12.394;2023-05-29T04:25:43;11.83;;;4.30;;
25327;SDS011;13279;51.300;12.394;2023-05-29T04:28:14;5.60;;;4.10;;
25327;SDS011;13279;51.300;12.394;2023-05-29T04:30:44;7.03;;;4.03;;
25327;SDS011;13279;51.300;12.394;2023-05-29T04:33:11;7.63;;;3.90;;
25327;SDS011;13279;51.300;12.394;2023-05-29T04:35:44;11.07;;;4.13;;
25327;SDS011;13279;51.300;12.394;2023-05-29T04:38:15;11.37;;;4.43;;
25327;SDS011;13279;51.300;12.394;2023-05-29T04:40:45;9.27;;;6.20;;
25327;SDS011;13279;51.300;12.394;2023-05-29T04:43:16;11.03;;;5.97;;
25327;SDS011;13279;51.300;12.394;2023-05-29T04:46:05;9.00;;;6.13;;
25327;SDS011;13279;51.300;12.394;2023-05-29T04:48:38;14.73;;;5.97;;
25327;SDS011;13279;51.300;12.394;2023-05-29T04:51:10;14.77;;;7.10;;
25327;SDS011;13279;51.300;12.394;2023-05-29T04:53:38;16.00;;;7.77;;
25327;SDS011;13279;51.300;12.394;2023-05-29T04:56:07;15.33;;;7.33;;
25327;SDS011;13279;51.300;12.394;2023-05-29T04:58:36;20.03;;;6.83;;
25327;SDS011;13279;51.300;12.394;2023-05-29T05:01:04;11.77;;;6.23;;
25327;SDS011;13279;51.300;12.394;2023-05-29T05:03:36;10.10;;;4.60;;
25327;SDS011;13279;51.300;12.394;2023-05-29T05:06:03;9.87;;;4.67;;
25327;SDS011;13279;51.300;12.394;2023-05-29T05:08:33;10.27;;;5.57;;
25327;SDS011;13279;51.300;12.394;2023-05-29T05:11:01;8.17;;;4.67;;
25327;SDS011;13279;51.300;12.394;2023-05-29T05:13:30;14.03;;;4.67;;
25327;SDS011;13279;51.300;12.394;2023-05-29T05:15:57;12.43;;;4.70;;
25327;SDS011;13279;51.300;12.394;2023-05-29T05:18:29;8.93;;;4.13;;
25327;SDS011;13279;51.300;12.394;2023-05-29T05:21:03;7.43;;;4.17;;
25327;SDS011;13279;51.300;12.394;2023-05-29T05:23:33;13.07;;;4.23;;
25327;SDS011;13279;51.300;12.394;2023-05-29T05:26:01;15.87;;;5.17;;
25327;SDS011;13279;51.300;12.394;2023-05-29T05:28:31;11.87;;;3.83;;
25327;SDS011;13279;51.300;12.394;2023-05-29T05:30:59;12.60;;;4.97;;
25327;SDS011;13279;51.300;12.394;2023-05-29T05:33:31;5.80;;;4.80;;
25327;SDS011;13279;51.300;12.394;2023-05-29T05:35:59;16.80;;;4.17;;
25327;SDS011;13279;51.300;12.394;2023-05-29T05:38:27;9.17;;;4.33;;
25327;SDS011;13279;51.300;12.394;2023-05-29T05:40:55;8.43;;;4.40;;
25327;SDS011;13279;51.300;12.394;2023-05-29T05:43:28;9.37;;;4.03;;
25327;SDS011;13279;51.300;12.394;2023-05-29T05:46:19;6.50;;;3.77;;
25327;SDS011;13279;51.300;12.394;2023-05-29T05:48:48;9.33;;;4.27;;
25327;SDS011;13279;51.300;12.394;2023-05-29T05:51:17;8.60;;;4.10;;
25327;SDS011;13279;51.300;12.394;2023-05-29T05:53:47;14.80;;;5.70;;
25327;SDS011;13279;51.300;12.394;2023-05-29T05:56:14;11.70;;;4.60;;
25327;SDS011;13279;51.300;12.394;2023-05-29T05:58:44;9.87;;;4.83;;
25327;SDS011;13279;51.300;12.394;2023-05-29T06:01:18;8.63;;;4.07;;
25327;SDS011;13279;51.300;12.394;2023-05-29T06:03:48;12.17;;;4.10;;
25327;SDS011;13279;51.300;12.394;2023-05-29T06:06:16;6.00;;;3.97;;
25327;SDS011;13279;51.300;12.394;2023-05-29T06:08:46;19.60;;;4.40;;
25327;SDS011;13279;51.300;12.394;2023-05-29T06:11:15;8.53;;;4.03;;
25327;SDS011;13279;51.300;12.394;2023-05-29T06:13:44;12.93;;;4.43;;
25327;SDS011;13279;51.300;12.394;2023-05-29T06:16:21;7.90;;;4.37;;
25327;SDS011;13279;51.300;12.394;2023-05-29T06:18:51;14.53;;;4.37;;
25327;SDS011;13279;51.300;12.394;2023-05-29T06:21:20;9.23;;;3.87;;
25327;SDS011;13279;51.300;12.394;2023-05-29T06:23:52;9.03;;;3.97;;
25327;SDS011;13279;51.300;12.394;2023-05-29T06:26:20;8.30;;;3.80;;
25327;SDS011;13279;51.300;12.394;2023-05-29T06:28:48;11.93;;;4.07;;
25327;SDS011;13279;51.300;12.394;2023-05-29T06:31:16;8.87;;;3.80;;
25327;SDS011;13279;51.300;12.394;2023-05-29T06:33:44;8.17;;;4.30;;
25327;SDS011;13279;51.300;12.394;2023-05-29T06:36:13;10.87;;;4.27;;
25327;SDS011;13279;51.300;12.394;2023-05-29T06:38:45;12.87;;;5.07;;
25327;SDS011;13279;51.300;12.394;2023-05-29T06:41:14;8.70;;;4.60;;
25327;SDS011;13279;51.300;12.394;2023-05-29T06:43:41;12.67;;;4.73;;
25327;SDS011;13279;51.300;12.394;2023-05-29T06:46:12;9.03;;;4.53;;
25327;SDS011;13279;51.300;12.394;2023-05-29T06:48:40;9.33;;;4.13;;
25327;SDS011;13279;51.300;12.394;2023-05-29T06:51:09;10.30;;;5.37;;
25327;SDS011;13279;51.300;12.394;2023-05-29T06:53:42;8.87;;;4.23;;
25327;SDS011;13279;51.300;12.394;2023-05-29T06:56:12;9.50;;;4.43;;
25327;SDS011;13279;51.300;12.394;2023-05-29T06:58:43;8.57;;;4.00;;
25327;SDS011;13279;51.300;12.394;2023-05-29T07:01:13;6.57;;;4.40;;
25327;SDS011;13279;51.300;12.394;2023-05-29T07:04:03;10.77;;;4.70;;
25327;SDS011;13279;51.300;12.394;2023-05-29T07:06:31;11.03;;;4.83;;
25327;SDS011;13279;51.300;12.394;2023-05-29T07:09:00;10.80;;;4.70;;
25327;SDS011;13279;51.300;12.394;2023-05-29T07:11:28;10.83;;;4.60;;
25327;SDS011;13279;51.300;12.394;2023-05-29T07:13:56;8.47;;;4.53;;
25327;SDS011;13279;51.300;12.394;2023-05-29T07:16:25;8.77;;;4.37;;
25327;SDS011;13279;51.300;12.394;2023-05-29T07:18:57;9.87;;;4.57;;
25327;SDS011;13279;51.300;12.394;2023-05-29T07:21:28;10.43;;;5.00;;
25327;SDS011;13279;51.300;12.394;2023-05-29T07:23:58;10.07;;;4.83;;
25327;SDS011;13279;51.300;12.394;2023-05-29T07:26:27;9.67;;;4.37;;
25327;SDS011;13279;51.300;12.394;2023-05-29T07:28:56;10.87;;;3.77;;
25327;SDS011;13279;51.300;12.394;2023-05-29T07:31:24;8.17;;;4.80;;
25327;SDS011;13279;51.300;12.394;2023-05-29T07:33:51;11.87;;;4.80;;
25327;SDS011;13279;51.300;12.394;2023-05-29T07:36:21;10.13;;;4.27;;
25327;SDS011;13279;51.300;12.394;2023-05-29T07:38:50;8.37;;;4.73;;
25327;SDS011;13279;51.300;12.394;2023-05-29T07:41:20;15.33;;;4.67;;
25327;SDS011;13279;51.300;12.394;2023-05-29T07:43:51;10.00;;;4.00;;
25327;SDS011;13279;51.300;12.394;2023-05-29T07:46:22;11.40;;;4.50;;
25327;SDS011;13279;51.300;12.394;2023-05-29T07:48:54;13.80;;;4.67;;
25327;SDS011;13279;51.300;12.394;2023-05-29T07:51:22;10.67;;;4.87;;
25327;SDS011;13279;51.300;12.394;2023-05-29T07:53:51;16.87;;;4.00;;
25327;SDS011;13279;51.300;12.394;2023-05-29T07:56:20;8.93;;;4.03;;
25327;SDS011;13279;51.300;12.394;2023-05-29T07:58:47;10.47;;;4.53;;
25327;SDS011;13279;51.300;12.394;2023-05-29T08:01:15;9.73;;;4.13;;
25327;SDS011;13279;51.300;12.394;2023-05-29T08:03:43;5.17;;;3.97;;
25327;SDS011;13279;51.300;12.394;2023-05-29T08:06:19;12.30;;;3.87;;
25327;SDS011;13279;51.300;12.394;2023-05-29T08:08:49;9.93;;;4.03;;
25327;SDS011;13279;51.300;12.394;2023-05-29T08:11:22;10.63;;;4.00;;
25327;SDS011;13279;51.300;12.394;2023-05-29T08:13:54;9.20;;;3.70;;
25327;SDS011;13279;51.300;12.394;2023-05-29T08:16:22;7.17;;;3.83;;
25327;SDS011;13279;51.300;12.394;2023-05-29T08:18:50;7.13;;;3.57;;
25327;SDS011;13279;51.300;12.394;2023-05-29T08:21:18;8.53;;;3.90;;
25327;SDS011;13279;51.300;12.394;2023-05-29T08:23:46;7.07;;;4.17;;
25327;SDS011;13279;51.300;12.394;2023-05-29T08:26:13;8.03;;;3.73;;
25327;SDS011;13279;51.300;12.394;2023-05-29T08:28:42;11.23;;;3.93;;
25327;SDS011;13279;51.300;12.394;2023-05-29T08:31:10;9.47;;;3.40;;
25327;SDS011;13279;51.300;12.394;2023-05-29T08:33:37;5.67;;;4.00;;
25327;SDS011;13279;51.300;12.394;2023-05-29T08:36:05;7.97;;;3.80;;
25327;SDS011;13279;51.300;12.394;2023-05-29T08:38:32;6.27;;;3.80;;
25327;SDS011;13279;51.300;12.394;2023-05-29T08:41:00;9.37;;;3.60;;
25327;SDS011;13279;51.300;12.394;2023-05-29T08:43:31;6.90;;;3.57;;
25327;SDS011;13279;51.300;12.394;2023-05-29T08:46:01;7.50;;;3.30;;
25327;SDS011;13279;51.300;12.394;2023-05-29T08:48:33;10.60;;;3.17;;
25327;SDS011;13279;51.300;12.394;2023-05-29T08:51:04;8.30;;;3.67;;
25327;SDS011;13279;51.300;12.394;2023-05-29T08:53:34;5.77;;;3.93;;
25327;SDS011;13279;51.300;12.394;2023-05-29T08:56:08;11.43;;;3.60;;
25327;SDS011;13279;51.300;12.394;2023-05-29T08:58:35;5.77;;;3.43;;
25327;SDS011;13279;51.300;12.394;2023-05-29T09:01:06;7.40;;;3.80;;
25327;SDS011;13279;51.300;12.394;2023-05-29T09:03:34;8.50;;;3.93;;
25327;SDS011;13279;51.300;12.394;2023-05-29T09:06:03;7.70;;;3.63;;
25327;SDS011;13279;51.300;12.394;2023-05-29T09:08:32;7.13;;;3.77;;
25327;SDS011;13279;51.300;12.394;2023-05-29T09:11:00;4.37;;;3.10;;
25327;SDS011;13279;51.300;12.394;2023-05-29T09:13:27;7.77;;;3.37;;
25327;SDS011;13279;51.300;12.394;2023-05-29T09:15:58;6.70;;;3.00;;
25327;SDS011;13279;51.300;12.394;2023-05-29T09:18:30;9.00;;;3.23;;
25327;SDS011;13279;51.300;12.394;2023-05-29T09:20:58;9.70;;;3.53;;
25327;SDS011;13279;51.300;12.394;2023-05-29T09:23:26;5.80;;;2.97;;
25327;SDS011;13279;51.300;12.394;2023-05-29T09:25:53;11.53;;;4.23;;
25327;SDS011;13279;51.300;12.394;2023-05-29T09:28:21;6.57;;;3.80;;
25327;SDS011;13279;51.300;12.394;2023-05-29T09:30:52;6.07;;;3.33;;
25327;SDS011;13279;51.300;12.394;2023-05-29T09:33:21;6.20;;;3.33;;
25327;SDS011;13279;51.300;12.394;2023-05-29T09:35:50;7.73;;;3.10;;
25327;SDS011;13279;51.300;12.394;2023-05-29T09:38:18;8.43;;;3.03;;
25327;SDS011;13279;51.300;12.394;2023-05-29T09:40:46;10.17;;;2.80;;
25327;SDS011;13279;51.300;12.394;2023-05-29T09:43:14;12.07;;;3.40;;
25327;SDS011;13279;51.300;12.394;2023-05-29T09:45:43;4.53;;;2.87;;
25327;SDS011;13279;51.300;12.394;2023-05-29T09:48:12;14.23;;;4.13;;
25327;SDS011;13279;51.300;12.394;2023-05-29T09:50:41;9.33;;;3.20;;
25327;SDS011;13279;51.300;12.394;2023-05-29T09:53:18;9.50;;;3.30;;
25327;SDS011;13279;51.300;12.394;2023-05-29T09:55:48;12.70;;;3.93;;
25327;SDS011;13279;51.300;12.394;2023-05-29T09:58:17;10.07;;;3.63;;
25327;SDS011;13279;51.300;12.394;2023-05-29T10:00:46;10.67;;;3.23;;
25327;SDS011;13279;51.300;12.394;2023-05-29T10:03:15;9.70;;;3.27;;
25327;SDS011;13279;51.300;12.394;2023-05-29T10:05:44;6.47;;;3.27;;
25327;SDS011;13279;51.300;12.394;2023-05-29T10:08:18;6.37;;;3.30;;
25327;SDS011;13279;51.300;12.394;2023-05-29T10:10:48;4.87;;;2.80;;
25327;SDS011;13279;51.300;12.394;2023-05-29T10:13:28;4.97;;;3.13;;
25327;SDS011;13279;51.300;12.394;2023-05-29T10:16:03;11.10;;;3.43;;
25327;SDS011;13279;51.300;12.394;2023-05-29T10:18:35;8.30;;;2.93;;
25327;SDS011;13279;51.300;12.394;2023-05-29T10:21:07;6.17;;;3.43;;
25327;SDS011;13279;51.300;12.394;2023-05-29T10:23:44;6.63;;;3.13;;
25327;SDS011;13279;51.300;12.394;2023-05-29T10:26:47;4.70;;;2.63;;
25327;SDS011;13279;51.300;12.394;2023-05-29T10:29:18;10.10;;;3.20;;
25327;SDS011;13279;51.300;12.394;2023-05-29T10:31:59;7.80;;;2.50;;
25327;SDS011;13279;51.300;12.394;2023-05-29T10:34:33;5.73;;;2.80;;
25327;SDS011;13279;51.300;12.394;2023-05-29T10:37:08;5.97;;;3.03;;
25327;SDS011;13279;51.300;12.394;2023-05-29T10:39:51;7.60;;;3.30;;
25327;SDS011;13279;51.300;12.394;2023-05-29T10:45:10;5.37;;;2.87;;
25327;SDS011;13279;51.300;12.394;2023-05-29T10:47:38;5.00;;;2.80;;
25327;SDS011;13279;51.300;12.394;2023-05-29T10:50:06;7.37;;;3.20;;
25327;SDS011;13279;51.300;12.394;2023-05-29T10:52:36;11.30;;;2.83;;
25327;SDS011;13279;51.300;12.394;2023-05-29T10:55:17;6.27;;;3.27;;
25327;SDS011;13279;51.300;12.394;2023-05-29T10:57:46;4.40;;;2.63;;
25327;SDS011;13279;51.300;12.394;2023-05-29T11:00:15;7.57;;;3.13;;
25327;SDS011;13279;51.300;12.394;2023-05-29T11:02:45;5.40;;;3.13;;
25327;SDS011;13279;51.300;12.394;2023-05-29T11:05:23;8.07;;;3.00;;
25327;SDS011;13279;51.300;12.394;2023-05-29T11:07:57;6.20;;;3.10;;
25327;SDS011;13279;51.300;12.394;2023-05-29T11:10:55;6.37;;;2.80;;
25327;SDS011;13279;51.300;12.394;2023-05-29T11:13:30;6.30;;;3.50;;
25327;SDS011;13279;51.300;12.394;2023-05-29T11:16:04;6.53;;;2.63;;
25327;SDS011;13279;51.300;12.394;2023-05-29T11:18:42;5.33;;;2.80;;
25327;SDS011;13279;51.300;12.394;2023-05-29T11:21:22;6.47;;;2.50;;
25327;SDS011;13279;51.300;12.394;2023-05-29T11:23:58;6.57;;;2.83;;
25327;SDS011;13279;51.300;12.394;2023-05-29T11:26:30;4.90;;;2.57;;
25327;SDS011;13279;51.300;12.394;2023-05-29T11:29:02;8.73;;;2.90;;
25327;SDS011;13279;51.300;12.394;2023-05-29T11:31:33;5.00;;;3.07;;
25327;SDS011;13279;51.300;12.394;2023-05-29T11:34:03;6.97;;;3.10;;
25327;SDS011;13279;51.300;12.394;2023-05-29T11:36:31;6.70;;;3.13;;
25327;SDS011;13279;51.300;12.394;2023-05-29T11:39:09;7.07;;;2.83;;
25327;SDS011;13279;51.300;12.394;2023-05-29T11:41:38;10.77;;;3.07;;
25327;SDS011;13279;51.300;12.394;2023-05-29T11:44:07;7.50;;;2.77;;
25327;SDS011;13279;51.300;12.394;2023-05-29T11:46:35;5.03;;;2.87;;
25327;SDS011;13279;51.300;12.394;2023-05-29T11:49:03;6.50;;;3.00;;
25327;SDS011;13279;51.300;12.394;2023-05-29T11:51:31;7.13;;;2.80;;
25327;SDS011;13279;51.300;12.394;2023-05-29T11:53:59;4.00;;;2.17;;
25327;SDS011;13279;51.300;12.394;2023-05-29T11:56:28;5.50;;;2.60;;
25327;SDS011;13279;51.300;12.394;2023-05-29T11:58:58;5.20;;;3.10;;
25327;SDS011;13279;51.300;12.394;2023-05-29T12:01:28;6.43;;;2.97;;
25327;SDS011;13279;51.300;12.394;2023-05-29T12:03:55;4.23;;;2.73;;
25327;SDS011;13279;51.300;12.394;2023-05-29T12:06:33;5.03;;;3.17;;
25327;SDS011;13279;51.300;12.394;2023-05-29T12:09:03;7.10;;;3.00;;
25327;SDS011;13279;51.300;12.394;2023-05-29T12:11:30;3.77;;;2.73;;
25327;SDS011;13279;51.300;12.394;2023-05-29T12:14:01;5.20;;;3.50;;
25327;SDS011;13279;51.300;12.394;2023-05-29T12:16:29;3.83;;;2.73;;
25327;SDS011;13279;51.300;12.394;2023-05-29T12:18:59;5.93;;;2.97;;
25327;SDS011;13279;51.300;12.394;2023-05-29T12:21:26;6.27;;;2.90;;
25327;SDS011;13279;51.300;12.394;2023-05-29T12:23:54;7.83;;;3.10;;
25327;SDS011;13279;51.300;12.394;2023-05-29T12:26:22;7.53;;;3.30;;
25327;SDS011;13279;51.300;12.394;2023-05-29T12:28:51;3.57;;;2.27;;
25327;SDS011;13279;51.300;12.394;2023-05-29T12:31:30;4.67;;;2.80;;
25327;SDS011;13279;51.300;12.394;2023-05-29T12:34:01;4.40;;;2.70;;
25327;SDS011;13279;51.300;12.394;2023-05-29T12:36:34;4.50;;;2.80;;
25327;SDS011;13279;51.300;12.394;2023-05-29T12:39:05;8.00;;;3.00;;
25327;SDS011;13279;51.300;12.394;2023-05-29T12:41:35;6.10;;;3.03;;
25327;SDS011;13279;51.300;12.394;2023-05-29T12:44:04;5.67;;;3.03;;
25327;SDS011;13279;51.300;12.394;2023-05-29T12:46:39;3.90;;;2.80;;
25327;SDS011;13279;51.300;12.394;2023-05-29T12:49:12;9.17;;;3.30;;
25327;SDS011;13279;51.300;12.394;2023-05-29T12:51:45;5.67;;;3.00;;
25327;SDS011;13279;51.300;12.394;2023-05-29T12:54:13;5.87;;;3.00;;
25327;SDS011;13279;51.300;12.394;2023-05-29T12:56:42;6.13;;;2.90;;
25327;SDS011;13279;51.300;12.394;2023-05-29T12:59:16;6.30;;;3.40;;
25327;SDS011;13279;51.300;12.394;2023-05-29T13:01:46;7.17;;;3.40;;
25327;SDS011;13279;51.300;12.394;2023-05-29T13:04:17;7.77;;;3.00;;
25327;SDS011;13279;51.300;12.394;2023-05-29T13:06:45;7.07;;;2.67;;
25327;SDS011;13279;51.300;12.394;2023-05-29T13:09:12;8.23;;;3.27;;
25327;SDS011;13279;51.300;12.394;2023-05-29T13:11:46;4.57;;;3.03;;
25327;SDS011;13279;51.300;12.394;2023-05-29T13:14:22;19.73;;;3.10;;
25327;SDS011;13279;51.300;12.394;2023-05-29T13:16:51;3.30;;;2.70;;
25327;SDS011;13279;51.300;12.394;2023-05-29T13:19:18;5.73;;;3.43;;
25327;SDS011;13279;51.300;12.394;2023-05-29T13:21:46;5.57;;;2.73;;
25327;SDS011;13279;51.300;12.394;2023-05-29T13:24:15;8.67;;;2.73;;
25327;SDS011;13279;51.300;12.394;2023-05-29T13:26:43;6.23;;;3.00;;
25327;SDS011;13279;51.300;12.394;2023-05-29T13:29:11;11.27;;;3.27;;
25327;SDS011;13279;51.300;12.394;2023-05-29T13:31:39;7.67;;;2.60;;
25327;SDS011;13279;51.300;12.394;2023-05-29T13:34:11;7.23;;;2.77;;
25327;SDS011;13279;51.300;12.394;2023-05-29T13:36:39;5.13;;;3.30;;
25327;SDS011;13279;51.300;12.394;2023-05-29T13:39:06;7.67;;;3.40;;
25327;SDS011;13279;51.300;12.394;2023-05-29T13:41:35;6.13;;;3.07;;
25327;SDS011;13279;51.300;12.394;2023-05-29T13:44:02;7.38;;;3.03;;
25327;SDS011;13279;51.300;12.394;2023-05-29T13:46:32;5.13;;;2.72;;
25327;SDS011;13279;51.300;12.394;2023-05-29T13:49:03;4.07;;;2.58;;
25327;SDS011;13279;51.300;12.394;2023-05-29T13:51:34;6.32;;;3.03;;
25327;SDS011;13279;51.300;12.394;2023-05-29T13:54:02;5.68;;;2.70;;
25327;SDS011;13279;51.300;12.394;2023-05-29T13:56:30;5.97;;;3.00;;
25327;SDS011;13279;51.300;12.394;2023-05-29T13:59:02;6.97;;;3.03;;
25327;SDS011;13279;51.300;12.394;2023-05-29T14:01:32;4.17;;;2.93;;
25327;SDS011;13279;51.300;12.394;2023-05-29T14:04:01;4.57;;;2.60;;
25327;SDS011;13279;51.300;12.394;2023-05-29T14:06:29;3.43;;;2.83;;
25327;SDS011;13279;51.300;12.394;2023-05-29T14:08:59;9.68;;;3.20;;
25327;SDS011;13279;51.300;12.394;2023-05-29T14:11:31;9.25;;;3.08;;
25327;SDS011;13279;51.300;12.394;2023-05-29T14:14:02;3.72;;;2.80;;
25327;SDS011;13279;51.300;12.394;2023-05-29T14:16:34;4.05;;;3.03;;
25327;SDS011;13279;51.300;12.394;2023-05-29T14:19:01;3.90;;;2.63;;
25327;SDS011;13279;51.300;12.394;2023-05-29T14:21:29;5.10;;;3.13;;
25327;SDS011;13279;51.300;12.394;2023-05-29T14:23:58;9.75;;;2.90;;
25327;SDS011;13279;51.300;12.394;2023-05-29T14:26:26;4.03;;;2.80;;
25327;SDS011;13279;51.300;12.394;2023-05-29T14:28:54;7.10;;;2.67;;
25327;SDS011;13279;51.300;12.394;2023-05-29T14:31:22;4.82;;;2.67;;
25327;SDS011;13279;51.300;12.394;2023-05-29T14:33:49;6.47;;;2.97;;
25327;SDS011;13279;51.300;12.394;2023-05-29T14:36:17;4.13;;;2.70;;
25327;SDS011;13279;51.300;12.394;2023-05-29T14:38:44;4.78;;;2.58;;
25327;SDS011;13279;51.300;12.394;2023-05-29T14:41:16;4.95;;;3.15;;
25327;SDS011;13279;51.300;12.394;2023-05-29T14:43:46;3.83;;;2.72;;
25327;SDS011;13279;51.300;12.394;2023-05-29T14:46:13;4.97;;;2.80;;
25327;SDS011;13279;51.300;12.394;2023-05-29T14:48:44;8.05;;;3.03;;
25327;SDS011;13279;51.300;12.394;2023-05-29T14:51:15;6.18;;;2.47;;